createdAt,value
2019-02-17T00:00:04.961Z,21.10
2019-02-17T00:01:04.924Z,19.50
2019-02-17T00:02:04.929Z,19.70
2019-02-17T00:03:04.903Z,19.60
2019-02-17T00:04:04.901Z,19.60
2019-02-17T00:05:04.877Z,19.50
2019-02-17T00:06:04.866Z,20.00
2019-02-17T00:07:04.860Z,21.00
2019-02-17T00:08:04.845Z,20.20
2019-02-17T00:09:04.842Z,19.70
2019-02-17T00:10:04.817Z,20.60
2019-02-17T00:11:04.806Z,21.20
2019-02-17T00:12:04.840Z,19.80
2019-02-17T00:13:04.794Z,19.70
2019-02-17T00:14:04.796Z,18.90
2019-02-17T00:15:04.791Z,20.60
2019-02-17T00:16:04.764Z,19.90
2019-02-17T00:17:04.776Z,19.30
2019-02-17T00:18:04.753Z,19.60
2019-02-17T00:19:04.750Z,20.50
2019-02-17T00:20:04.738Z,20.10
2019-02-17T00:21:04.711Z,19.80
2019-02-17T00:22:04.683Z,20.60
2019-02-17T00:23:04.711Z,21.10
2019-02-17T00:24:04.660Z,20.50
2019-02-17T00:25:04.660Z,19.60
2019-02-17T00:26:04.641Z,19.70
2019-02-17T00:27:04.633Z,20.60
2019-02-17T00:28:04.655Z,20.80
2019-02-17T00:29:04.631Z,21.40
2019-02-17T00:30:04.630Z,21.70
2019-02-17T00:31:04.588Z,21.00
2019-02-17T00:32:04.596Z,21.90
2019-02-17T00:33:04.582Z,20.90
2019-02-17T00:34:04.560Z,21.10
2019-02-17T00:35:04.549Z,21.30
2019-02-17T00:36:04.532Z,21.90
2019-02-17T00:37:04.549Z,21.50
2019-02-17T00:38:04.512Z,20.90
2019-02-17T00:39:04.506Z,21.40
2019-02-17T00:40:04.489Z,20.40
2019-02-17T00:41:04.483Z,20.90
2019-02-17T00:42:04.484Z,21.10
2019-02-17T00:43:04.668Z,20.70
2019-02-17T00:44:04.456Z,21.20
2019-02-17T00:45:04.441Z,21.60
2019-02-17T00:46:04.432Z,21.30
2019-02-17T00:47:04.425Z,22.10
2019-02-17T00:48:04.450Z,22.00
2019-02-17T00:49:04.398Z,23.20
2019-02-17T00:50:04.403Z,24.00
2019-02-17T00:51:04.389Z,21.00
2019-02-17T00:52:04.382Z,21.60
2019-02-17T00:53:04.364Z,22.50
2019-02-17T00:54:04.344Z,21.10
2019-02-17T00:55:04.325Z,23.10
2019-02-17T00:56:04.316Z,22.80
2019-02-17T00:57:04.306Z,23.30
2019-02-17T00:58:04.339Z,22.70
2019-02-17T00:59:10.085Z,22.00
2019-02-17T01:00:05.286Z,23.00
2019-02-17T01:01:04.274Z,21.60
2019-02-17T01:02:04.259Z,22.40
2019-02-17T01:03:04.268Z,22.00
2019-02-17T01:04:04.275Z,21.70
2019-02-17T01:05:04.243Z,23.10
2019-02-17T01:06:04.216Z,22.70
2019-02-17T01:07:04.201Z,22.60
2019-02-17T01:08:04.224Z,23.30
2019-02-17T01:09:04.182Z,23.10
2019-02-17T01:10:04.170Z,23.40
2019-02-17T01:11:04.154Z,22.50
2019-02-17T01:12:04.154Z,23.40
2019-02-17T01:13:04.137Z,23.30
2019-02-17T01:14:04.158Z,22.40
2019-02-17T01:15:04.136Z,22.90
2019-02-17T01:16:04.117Z,23.50
2019-02-17T01:17:04.147Z,24.50
2019-02-17T01:18:04.084Z,24.10
2019-02-17T01:19:04.096Z,24.20
2019-02-17T01:20:04.068Z,24.40
2019-02-17T01:21:04.073Z,23.70
2019-02-17T01:22:04.064Z,22.90
2019-02-17T01:23:04.035Z,23.80
2019-02-17T01:24:04.054Z,23.00
2019-02-17T01:25:04.046Z,26.10
2019-02-17T01:26:04.019Z,25.50
2019-02-17T01:27:03.991Z,25.00
2019-02-17T01:28:03.985Z,23.50
2019-02-17T01:29:04.021Z,23.20
2019-02-17T01:30:03.959Z,23.90
2019-02-17T01:31:03.944Z,24.00
2019-02-17T01:32:03.969Z,23.50
2019-02-17T01:33:03.924Z,24.90
2019-02-17T01:34:03.924Z,25.50
2019-02-17T01:35:03.923Z,24.60
2019-02-17T01:36:03.899Z,24.00
2019-02-17T01:37:03.894Z,25.10
2019-02-17T01:38:03.873Z,26.30
2019-02-17T01:39:03.891Z,25.60
2019-02-17T01:40:03.862Z,26.10
2019-02-17T01:41:03.843Z,26.20
2019-02-17T01:42:03.884Z,25.20
2019-02-17T01:43:03.815Z,25.50
2019-02-17T01:44:03.811Z,23.70
2019-02-17T01:45:03.815Z,24.30
2019-02-17T01:46:03.792Z,24.00
2019-02-17T01:47:03.770Z,24.80
2019-02-17T01:48:03.769Z,25.50
2019-02-17T01:49:03.782Z,24.60
2019-02-17T01:50:03.743Z,27.20
2019-02-17T01:51:03.734Z,26.20
2019-02-17T01:52:03.721Z,24.40
2019-02-17T01:53:03.727Z,24.60
2019-02-17T01:54:03.692Z,24.10
2019-02-17T01:55:03.786Z,26.30
2019-02-17T01:56:03.672Z,26.00
2019-02-17T01:57:03.670Z,25.70
2019-02-17T01:58:03.653Z,25.80
2019-02-17T01:59:03.637Z,24.60
2019-02-17T02:00:03.662Z,24.70
2019-02-17T02:01:03.631Z,24.90
2019-02-17T02:02:03.625Z,24.20
2019-02-17T02:03:03.598Z,25.10
2019-02-17T02:04:03.593Z,25.30
2019-02-17T02:05:03.814Z,24.40
2019-02-17T02:06:03.667Z,25.10
2019-02-17T02:07:03.555Z,25.80
2019-02-17T02:08:03.562Z,24.50
2019-02-17T02:09:03.539Z,25.70
2019-02-17T02:10:03.561Z,24.30
2019-02-17T02:11:03.506Z,25.50
2019-02-17T02:12:03.496Z,25.60
2019-02-17T02:13:03.497Z,24.90
2019-02-17T02:14:03.475Z,26.40
2019-02-17T02:15:03.735Z,25.70
2019-02-17T02:16:03.457Z,26.20
2019-02-17T02:17:03.443Z,25.90
2019-02-17T02:18:03.444Z,25.60
2019-02-17T02:19:03.426Z,27.00
2019-02-17T02:20:03.431Z,26.20
2019-02-17T02:21:03.407Z,26.40
2019-02-17T02:22:03.395Z,26.10
2019-02-17T02:23:03.379Z,25.90
2019-02-17T02:24:03.375Z,26.80
2019-02-17T02:25:03.401Z,26.70
2019-02-17T02:26:03.345Z,26.30
2019-02-17T02:27:03.345Z,26.80
2019-02-17T02:28:03.338Z,27.00
2019-02-17T02:29:03.326Z,27.20
2019-02-17T02:30:03.319Z,26.80
2019-02-17T02:31:03.324Z,27.30
2019-02-17T02:32:03.300Z,27.60
2019-02-17T02:33:03.267Z,27.20
2019-02-17T02:34:03.270Z,27.80
2019-02-17T02:35:03.264Z,27.20
2019-02-17T02:36:03.272Z,26.90
2019-02-17T02:37:03.263Z,25.60
2019-02-17T02:38:03.215Z,26.20
2019-02-17T02:39:03.203Z,27.00
2019-02-17T02:40:03.202Z,26.70
2019-02-17T02:41:03.237Z,25.90
2019-02-17T02:42:03.190Z,25.90
2019-02-17T02:43:03.172Z,26.90
2019-02-17T02:44:03.165Z,26.70
2019-02-17T02:45:03.140Z,27.40
2019-02-17T02:46:03.152Z,25.50
2019-02-17T02:47:03.133Z,26.30
2019-02-17T02:48:03.115Z,25.40
2019-02-17T02:49:03.105Z,26.30
2019-02-17T02:50:03.100Z,25.40
2019-02-17T02:51:03.096Z,25.90
2019-02-17T02:52:03.095Z,26.50
2019-02-17T02:53:03.074Z,26.60
2019-02-17T02:54:03.050Z,25.90
2019-02-17T02:55:03.036Z,25.90
2019-02-17T02:56:03.041Z,26.00
2019-02-17T02:57:03.025Z,25.60
2019-02-17T02:58:03.055Z,26.00
2019-02-17T02:59:02.988Z,25.60
2019-02-17T03:00:02.988Z,26.60
2019-02-17T03:01:02.968Z,24.60
2019-02-17T03:02:02.994Z,26.60
2019-02-17T03:03:02.964Z,26.70
2019-02-17T03:04:02.960Z,26.10
2019-02-17T03:05:02.924Z,26.00
2019-02-17T03:06:02.936Z,24.90
2019-02-17T03:07:02.981Z,25.10
2019-02-17T03:08:02.889Z,26.00
2019-02-17T03:09:02.883Z,24.90
2019-02-17T03:10:02.914Z,25.40
2019-02-17T03:11:02.875Z,24.80
2019-02-17T03:12:02.880Z,25.50
2019-02-17T03:13:02.838Z,25.60
2019-02-17T03:14:02.842Z,26.00
2019-02-17T03:15:02.843Z,26.20
2019-02-17T03:16:02.812Z,26.00
2019-02-17T03:17:02.824Z,26.10
2019-02-17T03:18:02.797Z,26.40
2019-02-17T03:19:02.790Z,25.30
2019-02-17T03:20:02.762Z,26.50
2019-02-17T03:21:02.757Z,26.10
2019-02-17T03:22:02.762Z,24.80
2019-02-17T03:23:02.726Z,25.30
2019-02-17T03:24:02.731Z,25.10
2019-02-17T03:25:02.720Z,25.40
2019-02-17T03:26:02.721Z,25.50
2019-02-17T03:27:02.752Z,26.60
2019-02-17T03:28:02.674Z,26.40
2019-02-17T03:29:02.671Z,25.40
2019-02-17T03:30:05.550Z,25.70
2019-02-17T03:31:02.666Z,25.60
2019-02-17T03:32:02.688Z,25.70
2019-02-17T03:33:02.629Z,26.20
2019-02-17T03:34:02.628Z,26.20
2019-02-17T03:35:02.596Z,25.70
2019-02-17T03:36:02.592Z,25.30
2019-02-17T03:37:02.603Z,25.60
2019-02-17T03:38:02.589Z,26.00
2019-02-17T03:39:02.564Z,26.40
2019-02-17T03:40:02.596Z,25.40
2019-02-17T03:41:02.535Z,25.70
2019-02-17T03:42:02.554Z,26.20
2019-02-17T03:43:02.555Z,27.10
2019-02-17T03:44:02.505Z,26.00
2019-02-17T03:45:02.502Z,25.00
2019-02-17T03:46:02.492Z,26.20
2019-02-17T03:47:02.467Z,26.10
2019-02-17T03:48:02.509Z,26.40
2019-02-17T03:49:02.449Z,25.10
2019-02-17T03:50:02.440Z,25.70
2019-02-17T03:51:02.460Z,26.40
2019-02-17T03:52:02.415Z,25.80
2019-02-17T03:53:02.426Z,25.60
2019-02-17T03:54:02.503Z,26.10
2019-02-17T03:55:02.392Z,25.90
2019-02-17T03:56:02.379Z,24.30
2019-02-17T03:57:02.365Z,24.70
2019-02-17T03:58:02.388Z,24.30
2019-02-17T03:59:02.382Z,24.10
2019-02-17T04:00:02.329Z,25.50
2019-02-17T04:01:02.323Z,25.20
2019-02-17T04:02:02.303Z,24.90
2019-02-17T04:03:02.309Z,24.60
2019-02-17T04:04:02.324Z,26.00
2019-02-17T04:05:02.278Z,25.40
2019-02-17T04:06:02.264Z,26.30
2019-02-17T04:07:02.287Z,25.80
2019-02-17T04:08:02.236Z,24.70
2019-02-17T04:09:02.262Z,25.50
2019-02-17T04:10:02.234Z,26.10
2019-02-17T04:11:02.214Z,26.10
2019-02-17T04:12:02.196Z,25.40
2019-02-17T04:13:02.213Z,24.10
2019-02-17T04:14:02.207Z,24.80
2019-02-17T04:15:02.175Z,24.80
2019-02-17T04:16:02.175Z,25.30
2019-02-17T04:17:02.143Z,24.90
2019-02-17T04:18:02.153Z,25.00
2019-02-17T04:19:02.136Z,25.00
2019-02-17T04:20:02.126Z,24.90
2019-02-17T04:21:02.097Z,26.20
2019-02-17T04:22:02.099Z,24.70
2019-02-17T04:23:02.090Z,25.00
2019-02-17T04:24:02.135Z,24.60
2019-02-17T04:25:02.088Z,24.20
2019-02-17T04:26:02.049Z,24.50
2019-02-17T04:27:02.055Z,24.50
2019-02-17T04:28:02.028Z,23.90
2019-02-17T04:29:02.029Z,23.40
2019-02-17T04:30:02.015Z,24.50
2019-02-17T04:31:02.002Z,24.30
2019-02-17T04:32:01.989Z,24.20
2019-02-17T04:33:01.972Z,24.20
2019-02-17T04:34:01.993Z,24.60
2019-02-17T04:35:01.947Z,23.90
2019-02-17T04:36:01.938Z,23.80
2019-02-17T04:37:01.954Z,23.60
2019-02-17T04:38:01.937Z,24.70
2019-02-17T04:39:01.962Z,23.70
2019-02-17T04:40:01.911Z,23.50
2019-02-17T04:41:01.886Z,24.00
2019-02-17T04:42:01.927Z,24.00
2019-02-17T04:43:01.889Z,24.10
2019-02-17T04:44:01.936Z,25.20
2019-02-17T04:45:01.864Z,24.00
2019-02-17T04:46:01.836Z,24.30
2019-02-17T04:47:01.820Z,25.00
2019-02-17T04:48:01.808Z,24.50
2019-02-17T04:49:01.798Z,24.70
2019-02-17T04:50:01.814Z,24.00
2019-02-17T04:51:01.779Z,24.50
2019-02-17T04:52:01.761Z,24.10
2019-02-17T04:53:01.762Z,24.30
2019-02-17T04:54:01.755Z,23.60
2019-02-17T04:55:01.745Z,24.10
2019-02-17T04:56:01.722Z,23.40
2019-02-17T04:57:01.717Z,23.60
2019-02-17T04:58:01.710Z,25.20
2019-02-17T04:59:01.719Z,23.00
2019-02-17T05:00:01.704Z,23.40
2019-02-17T05:01:01.666Z,22.40
2019-02-17T05:02:01.665Z,23.30
2019-02-17T05:03:01.651Z,23.60
2019-02-17T05:04:01.636Z,23.50
2019-02-17T05:05:01.644Z,22.90
2019-02-17T05:06:01.643Z,24.60
2019-02-17T05:07:01.598Z,23.70
2019-02-17T05:08:01.601Z,23.20
2019-02-17T05:09:01.581Z,23.70
2019-02-17T05:10:01.594Z,24.00
2019-02-17T05:11:01.562Z,23.00
2019-02-17T05:12:01.548Z,23.10
2019-02-17T05:13:01.541Z,22.90
2019-02-17T05:14:01.542Z,24.00
2019-02-17T05:15:01.559Z,23.50
2019-02-17T05:16:01.520Z,23.60
2019-02-17T05:17:01.515Z,24.60
2019-02-17T05:18:01.480Z,22.80
2019-02-17T05:19:01.472Z,23.00
2019-02-17T05:20:01.509Z,24.50
2019-02-17T05:21:01.485Z,22.90
2019-02-17T05:22:01.465Z,23.10
2019-02-17T05:23:01.440Z,23.00
2019-02-17T05:24:01.429Z,24.20
2019-02-17T05:25:01.435Z,23.80
2019-02-17T05:26:01.394Z,23.20
2019-02-17T05:27:01.432Z,24.10
2019-02-17T05:28:01.420Z,24.50
2019-02-17T05:29:01.390Z,24.30
2019-02-17T05:30:01.352Z,26.00
2019-02-17T05:31:01.366Z,24.40
2019-02-17T05:32:01.370Z,23.50
2019-02-17T05:33:01.324Z,24.00
2019-02-17T05:34:01.316Z,23.50
2019-02-17T05:35:01.305Z,23.20
2019-02-17T05:36:01.306Z,23.70
2019-02-17T05:37:01.303Z,23.80
2019-02-17T05:38:01.297Z,23.00
2019-02-17T05:39:01.254Z,24.00
2019-02-17T05:40:01.257Z,24.60
2019-02-17T05:41:01.229Z,24.60
2019-02-17T05:42:01.253Z,23.60
2019-02-17T05:43:01.209Z,23.40
2019-02-17T05:44:01.201Z,23.50
2019-02-17T05:45:01.224Z,22.80
2019-02-17T05:46:01.177Z,22.90
2019-02-17T05:47:01.189Z,23.60
2019-02-17T05:48:01.158Z,22.30
2019-02-17T05:49:01.159Z,22.90
2019-02-17T05:50:01.153Z,23.30
2019-02-17T05:51:01.137Z,23.40
2019-02-17T05:52:01.127Z,22.60
2019-02-17T05:53:01.128Z,23.20
2019-02-17T05:54:01.115Z,23.40
2019-02-17T05:55:01.089Z,22.50
2019-02-17T05:56:01.090Z,22.70
2019-02-17T05:57:01.064Z,24.50
2019-02-17T05:58:01.086Z,24.20
2019-02-17T05:59:01.050Z,23.90
2019-02-17T06:00:01.060Z,23.90
2019-02-17T06:01:03.820Z,22.30
2019-02-17T06:02:01.053Z,22.10
2019-02-17T06:03:01.020Z,23.50
2019-02-17T06:04:00.983Z,23.10
2019-02-17T06:05:00.991Z,23.80
2019-02-17T06:06:00.969Z,22.80
2019-02-17T06:07:00.961Z,22.90
2019-02-17T06:08:00.972Z,23.60
2019-02-17T06:09:00.942Z,23.20
2019-02-17T06:10:00.924Z,23.50
2019-02-17T06:11:00.917Z,23.90
2019-02-17T06:12:00.966Z,23.40
2019-02-17T06:13:00.887Z,23.90
2019-02-17T06:14:00.897Z,23.00
2019-02-17T06:15:00.876Z,22.80
2019-02-17T06:16:00.880Z,23.30
2019-02-17T06:17:00.855Z,24.00
2019-02-17T06:18:00.836Z,22.30
2019-02-17T06:19:00.855Z,23.00
2019-02-17T06:20:00.832Z,21.70
2019-02-17T06:21:00.803Z,23.10
2019-02-17T06:22:00.796Z,22.80
2019-02-17T06:23:00.782Z,21.90
2019-02-17T06:24:00.783Z,21.20
2019-02-17T06:25:00.766Z,22.00
2019-02-17T06:26:00.760Z,21.20
2019-02-17T06:27:00.749Z,22.50
2019-02-17T06:28:00.727Z,22.20
2019-02-17T06:29:00.764Z,22.40
2019-02-17T06:30:00.722Z,21.70
2019-02-17T06:31:00.691Z,21.40
2019-02-17T06:32:00.681Z,20.80
2019-02-17T06:33:00.673Z,21.80
2019-02-17T06:34:00.692Z,21.80
2019-02-17T06:35:00.656Z,21.30
2019-02-17T06:36:00.649Z,21.20
2019-02-17T06:37:00.628Z,21.70
2019-02-17T06:38:00.635Z,20.70
2019-02-17T06:39:00.626Z,19.40
2019-02-17T06:40:00.602Z,21.20
2019-02-17T06:41:00.604Z,21.40
2019-02-17T06:42:00.604Z,21.70
2019-02-17T06:43:00.575Z,20.40
2019-02-17T06:44:00.575Z,19.90
2019-02-17T06:45:00.554Z,20.80
2019-02-17T06:46:00.566Z,19.80
2019-02-17T06:47:00.533Z,19.70
2019-02-17T06:48:00.516Z,19.70
2019-02-17T06:49:00.547Z,20.30
2019-02-17T06:50:00.516Z,20.00
2019-02-17T06:51:00.494Z,20.80
2019-02-17T06:52:00.500Z,22.50
2019-02-17T06:53:00.481Z,21.30
2019-02-17T06:54:00.465Z,20.70
2019-02-17T06:55:00.461Z,20.50
2019-02-17T06:56:00.446Z,22.00
2019-02-17T06:57:00.424Z,20.80
2019-02-17T06:58:00.408Z,20.50
2019-02-17T06:59:00.449Z,20.80
2019-02-17T07:00:00.414Z,21.60
2019-02-17T07:01:00.376Z,21.80
2019-02-17T07:02:00.380Z,22.00
2019-02-17T07:03:00.347Z,20.50
2019-02-17T07:04:00.348Z,20.20
2019-02-17T07:05:00.368Z,20.40
2019-02-17T07:06:00.320Z,20.30
2019-02-17T07:07:00.318Z,20.80
2019-02-17T07:08:00.298Z,20.70
2019-02-17T07:09:00.294Z,21.20
2019-02-17T07:10:00.331Z,20.40
2019-02-17T07:11:00.316Z,21.60
2019-02-17T07:12:00.249Z,22.70
2019-02-17T07:13:00.239Z,21.40
2019-02-17T07:14:00.232Z,20.20
2019-02-17T07:15:00.303Z,20.60
2019-02-17T07:16:00.208Z,20.00
2019-02-17T07:17:00.197Z,19.20
2019-02-17T07:18:00.181Z,19.10
2019-02-17T07:19:00.175Z,19.50
2019-02-17T07:20:00.333Z,19.20
2019-02-17T07:21:00.153Z,19.30
2019-02-17T07:22:00.144Z,19.60
2019-02-17T07:23:00.135Z,20.30
2019-02-17T07:24:00.146Z,19.80
2019-02-17T07:25:00.301Z,19.60
2019-02-17T07:26:00.098Z,18.50
2019-02-17T07:27:00.099Z,18.50
2019-02-17T07:28:00.083Z,18.30
2019-02-17T07:29:00.090Z,18.90
2019-02-17T07:30:00.168Z,18.60
2019-02-17T07:31:00.061Z,17.60
2019-02-17T07:32:00.042Z,17.10
2019-02-17T07:33:00.028Z,16.60
2019-02-17T07:34:00.016Z,17.50
2019-02-17T07:35:00.004Z,17.50
2019-02-17T07:36:00.018Z,18.10
2019-02-17T07:36:59.999Z,17.40
2019-02-17T07:37:59.974Z,17.20
2019-02-17T07:38:59.956Z,16.70
2019-02-17T07:39:59.965Z,17.20
2019-02-17T07:40:59.971Z,17.30
2019-02-17T07:41:59.927Z,17.10
2019-02-17T07:42:59.925Z,17.50
2019-02-17T07:43:59.913Z,16.40
2019-02-17T07:44:59.900Z,15.90
2019-02-17T07:45:59.918Z,15.80
2019-02-17T07:46:59.894Z,16.60
2019-02-17T07:47:59.863Z,18.90
2019-02-17T07:48:59.859Z,19.70
2019-02-17T07:49:59.837Z,18.60
2019-02-17T07:50:59.857Z,17.80
2019-02-17T07:51:59.810Z,18.20
2019-02-17T07:52:59.806Z,16.90
2019-02-17T07:53:59.808Z,17.40
2019-02-17T07:54:59.784Z,17.40
2019-02-17T07:55:59.808Z,16.10
2019-02-17T07:56:59.760Z,16.90
2019-02-17T07:57:59.758Z,16.50
2019-02-17T07:58:59.754Z,17.10
2019-02-17T07:59:59.724Z,17.10
2019-02-17T08:00:59.778Z,16.40
2019-02-17T08:01:59.749Z,16.30
2019-02-17T08:02:59.691Z,16.10
2019-02-17T08:03:59.702Z,16.20
2019-02-17T08:04:59.675Z,17.30
2019-02-17T08:05:59.665Z,19.20
2019-02-17T08:06:59.673Z,18.70
2019-02-17T08:07:59.654Z,17.50
2019-02-17T08:08:59.628Z,18.50
2019-02-17T08:10:00.755Z,18.50
2019-02-17T08:11:03.904Z,20.10
2019-02-17T08:11:59.627Z,19.00
2019-02-17T08:12:59.585Z,19.40
2019-02-17T08:13:59.579Z,19.70
2019-02-17T08:14:59.561Z,18.00
2019-02-17T08:15:59.551Z,18.60
2019-02-17T08:16:59.592Z,20.70
2019-02-17T08:17:59.530Z,21.50
2019-02-17T08:18:59.544Z,17.90
2019-02-17T08:19:59.538Z,18.30
2019-02-17T08:20:59.514Z,19.70
2019-02-17T08:21:59.510Z,19.80
2019-02-17T08:22:59.486Z,19.10
2019-02-17T08:23:59.473Z,19.40
2019-02-17T08:24:59.464Z,18.50
2019-02-17T08:25:59.441Z,17.90
2019-02-17T08:26:59.454Z,18.60
2019-02-17T08:27:59.442Z,17.70
2019-02-17T08:28:59.414Z,17.90
2019-02-17T08:29:59.407Z,17.90
2019-02-17T08:30:59.392Z,17.90
2019-02-17T08:31:59.404Z,18.20
2019-02-17T08:32:59.467Z,17.70
2019-02-17T08:33:59.360Z,17.90
2019-02-17T08:34:59.362Z,17.40
2019-02-17T08:35:59.333Z,17.80
2019-02-17T08:36:59.324Z,18.60
2019-02-17T08:37:59.340Z,17.60
2019-02-17T08:38:59.299Z,17.70
2019-02-17T08:39:59.294Z,17.80
2019-02-17T08:41:00.834Z,17.20
2019-02-17T08:41:59.269Z,17.70
2019-02-17T08:42:59.304Z,17.80
2019-02-17T08:44:00.872Z,17.20
2019-02-17T08:44:59.241Z,17.10
2019-02-17T08:45:59.224Z,17.40
2019-02-17T08:46:59.213Z,17.70
2019-02-17T08:47:59.236Z,16.70
2019-02-17T08:48:59.193Z,17.80
2019-02-17T08:49:59.180Z,16.70
2019-02-17T08:50:59.191Z,17.30
2019-02-17T08:52:00.824Z,17.10
2019-02-17T08:52:59.172Z,17.00
2019-02-17T08:53:59.152Z,18.10
2019-02-17T08:54:59.128Z,17.50
2019-02-17T08:55:59.133Z,18.10
2019-02-17T08:56:59.120Z,17.60
2019-02-17T08:57:59.120Z,17.30
2019-02-17T08:58:59.099Z,16.70
2019-02-17T08:59:59.070Z,16.70
2019-02-17T09:00:59.062Z,16.90
2019-02-17T09:02:05.703Z,17.80
2019-02-17T09:03:00.045Z,17.80
2019-02-17T09:03:59.050Z,16.70
2019-02-17T09:04:59.035Z,16.70
2019-02-17T09:05:59.008Z,17.00
2019-02-17T09:06:58.996Z,17.90
2019-02-17T09:07:58.985Z,17.70
2019-02-17T09:08:59.015Z,17.10
2019-02-17T09:09:58.963Z,17.70
2019-02-17T09:10:58.951Z,17.90
2019-02-17T09:11:58.937Z,17.50
2019-02-17T09:12:58.938Z,17.70
2019-02-17T09:13:58.920Z,17.50
2019-02-17T09:14:58.959Z,17.60
2019-02-17T09:15:58.905Z,17.40
2019-02-17T09:16:58.886Z,17.60
2019-02-17T09:17:58.890Z,19.10
2019-02-17T09:18:58.912Z,19.20
2019-02-17T09:19:58.857Z,18.40
2019-02-17T09:20:58.856Z,18.60
2019-02-17T09:21:58.832Z,18.90
2019-02-17T09:22:58.838Z,18.30
2019-02-17T09:23:58.807Z,18.40
2019-02-17T09:24:58.813Z,18.60
2019-02-17T09:25:58.788Z,19.40
2019-02-17T09:26:58.775Z,18.90
2019-02-17T09:27:58.776Z,19.00
2019-02-17T09:28:58.755Z,19.00
2019-02-17T09:29:58.757Z,18.80
2019-02-17T09:30:58.743Z,19.70
2019-02-17T09:31:59.477Z,18.70
2019-02-17T09:32:58.726Z,18.60
2019-02-17T09:33:58.723Z,18.70
2019-02-17T09:34:58.709Z,19.70
2019-02-17T09:35:58.692Z,20.40
2019-02-17T09:36:58.750Z,20.70
2019-02-17T09:37:58.658Z,20.40
2019-02-17T09:38:58.640Z,21.40
2019-02-17T09:39:58.654Z,20.20
2019-02-17T09:40:58.624Z,20.50
2019-02-17T09:41:58.627Z,20.40
2019-02-17T09:42:58.626Z,20.00
2019-02-17T09:43:58.590Z,20.90
2019-02-17T09:44:58.609Z,21.10
2019-02-17T09:45:58.579Z,20.30
2019-02-17T09:46:58.570Z,20.20
2019-02-17T09:47:58.545Z,21.60
2019-02-17T09:48:58.535Z,21.50
2019-02-17T09:49:58.549Z,21.40
2019-02-17T09:50:58.525Z,21.40
2019-02-17T09:51:58.502Z,20.60
2019-02-17T09:52:58.489Z,21.20
2019-02-17T09:53:58.481Z,21.90
2019-02-17T09:54:58.506Z,21.90
2019-02-17T09:55:58.469Z,20.80
2019-02-17T09:56:58.446Z,21.40
2019-02-17T09:57:58.440Z,22.20
2019-02-17T09:58:58.431Z,21.90
2019-02-17T09:59:58.466Z,23.00
2019-02-17T10:00:58.421Z,21.30
2019-02-17T10:01:58.405Z,21.90
2019-02-17T10:02:58.375Z,21.70
2019-02-17T10:03:58.366Z,22.60
2019-02-17T10:04:58.353Z,23.30
2019-02-17T10:05:58.358Z,22.10
2019-02-17T10:06:58.352Z,22.00
2019-02-17T10:07:58.329Z,22.50
2019-02-17T10:08:58.314Z,22.50
2019-02-17T10:09:58.310Z,22.30
2019-02-17T10:10:58.325Z,22.10
2019-02-17T10:11:58.280Z,23.30
2019-02-17T10:12:58.276Z,22.50
2019-02-17T10:13:58.253Z,22.80
2019-02-17T10:14:58.248Z,23.50
2019-02-17T10:15:58.252Z,21.90
2019-02-17T10:16:58.236Z,23.30
2019-02-17T10:17:58.211Z,23.10
2019-02-17T10:18:58.205Z,22.30
2019-02-17T10:19:58.209Z,23.40
2019-02-17T10:20:58.198Z,23.60
2019-02-17T10:21:58.186Z,23.40
2019-02-17T10:22:58.160Z,23.70
2019-02-17T10:23:58.140Z,24.10
2019-02-17T10:24:58.141Z,23.90
2019-02-17T10:25:58.151Z,22.70
2019-02-17T10:26:58.109Z,24.00
2019-02-17T10:27:58.120Z,22.90
2019-02-17T10:28:58.087Z,22.40
2019-02-17T10:29:58.080Z,23.80
2019-02-17T10:30:58.076Z,24.30
2019-02-17T10:31:58.081Z,22.80
2019-02-17T10:32:58.049Z,23.30
2019-02-17T10:33:58.052Z,22.50
2019-02-17T10:34:58.053Z,24.00
2019-02-17T10:35:58.012Z,22.40
2019-02-17T10:36:58.014Z,23.20
2019-02-17T10:37:57.999Z,23.10
2019-02-17T10:38:58.535Z,23.10
2019-02-17T10:39:57.986Z,23.60
2019-02-17T10:40:57.952Z,23.10
2019-02-17T10:41:57.966Z,23.50
2019-02-17T10:42:57.939Z,23.40
2019-02-17T10:43:57.937Z,21.80
2019-02-17T10:44:57.911Z,23.40
2019-02-17T10:45:57.900Z,22.10
2019-02-17T10:46:57.924Z,22.20
2019-02-17T10:47:57.874Z,23.70
2019-02-17T10:48:57.870Z,22.50
2019-02-17T10:49:57.865Z,23.50
2019-02-17T10:50:57.846Z,23.70
2019-02-17T10:51:57.850Z,22.90
2019-02-17T10:52:57.825Z,24.30
2019-02-17T10:53:57.819Z,23.40
2019-02-17T10:54:57.798Z,23.30
2019-02-17T10:55:57.801Z,23.50
2019-02-17T10:56:57.819Z,24.00
2019-02-17T10:57:57.766Z,23.00
2019-02-17T10:58:57.772Z,24.10
2019-02-17T10:59:57.746Z,23.20
2019-02-17T11:00:57.740Z,23.40
2019-02-17T11:01:57.737Z,23.50
2019-02-17T11:02:57.759Z,23.30
2019-02-17T11:03:57.706Z,23.70
2019-02-17T11:04:57.696Z,23.00
2019-02-17T11:05:57.692Z,24.00
2019-02-17T11:06:59.858Z,24.40
2019-02-17T11:07:57.856Z,22.80
2019-02-17T11:09:04.180Z,22.40
2019-02-17T11:09:57.662Z,23.40
2019-02-17T11:10:57.637Z,24.60
2019-02-17T11:11:57.625Z,24.20
2019-02-17T11:12:57.630Z,24.10
2019-02-17T11:13:57.606Z,24.40
2019-02-17T11:14:57.579Z,24.30
2019-02-17T11:15:57.573Z,24.80
2019-02-17T11:16:57.570Z,23.80
2019-02-17T11:17:57.629Z,24.60
2019-02-17T11:18:57.535Z,24.80
2019-02-17T11:19:57.526Z,24.60
2019-02-17T11:20:57.515Z,24.20
2019-02-17T11:21:57.529Z,24.90
2019-02-17T11:22:57.520Z,24.60
2019-02-17T11:23:57.480Z,25.60
2019-02-17T11:24:57.872Z,24.50
2019-02-17T11:25:57.458Z,24.90
2019-02-17T11:26:57.451Z,23.30
2019-02-17T11:27:57.471Z,25.10
2019-02-17T11:28:57.439Z,24.00
2019-02-17T11:29:57.443Z,23.30
2019-02-17T11:30:57.409Z,24.00
2019-02-17T11:31:57.393Z,22.90
2019-02-17T11:32:58.342Z,21.80
2019-02-17T11:33:57.373Z,21.20
2019-02-17T11:34:57.403Z,21.60
2019-02-17T11:35:57.363Z,20.90
2019-02-17T11:36:57.342Z,21.10
2019-02-17T11:37:57.341Z,21.60
2019-02-17T11:38:57.344Z,20.60
2019-02-17T11:39:57.312Z,21.70
2019-02-17T11:40:57.306Z,21.10
2019-02-17T11:41:57.286Z,21.60
2019-02-17T11:42:57.273Z,22.70
2019-02-17T11:43:57.311Z,21.00
2019-02-17T11:44:57.252Z,21.80
2019-02-17T11:45:57.239Z,21.30
2019-02-17T11:46:57.239Z,21.50
2019-02-17T11:47:57.215Z,20.90
2019-02-17T11:48:57.208Z,22.00
2019-02-17T11:49:57.221Z,20.80
2019-02-17T11:50:57.182Z,21.60
2019-02-17T11:51:57.176Z,21.10
2019-02-17T11:52:57.163Z,20.90
2019-02-17T11:53:57.151Z,21.20
2019-02-17T11:54:57.163Z,20.50
2019-02-17T11:55:57.127Z,21.90
2019-02-17T11:56:57.117Z,22.00
2019-02-17T11:57:57.129Z,22.30
2019-02-17T11:58:57.119Z,22.40
2019-02-17T11:59:57.111Z,21.90
2019-02-17T12:00:57.069Z,20.50
2019-02-17T12:01:57.069Z,21.50
2019-02-17T12:03:07.321Z,22.00
2019-02-17T12:03:58.059Z,21.10
2019-02-17T12:04:57.049Z,19.80
2019-02-17T12:05:57.043Z,20.40
2019-02-17T12:06:57.003Z,19.30
2019-02-17T12:07:56.988Z,18.90
2019-02-17T12:08:56.984Z,19.40
2019-02-17T12:09:56.994Z,19.80
2019-02-17T12:10:56.961Z,19.20
2019-02-17T12:11:56.960Z,18.90
2019-02-17T12:12:56.942Z,18.40
2019-02-17T12:13:56.951Z,18.80
2019-02-17T12:14:56.938Z,19.20
2019-02-17T12:15:56.902Z,19.40
2019-02-17T12:16:56.912Z,18.80
2019-02-17T12:17:59.204Z,18.30
2019-02-17T12:18:56.874Z,18.20
2019-02-17T12:19:56.893Z,19.10
2019-02-17T12:20:56.854Z,19.90
2019-02-17T12:21:56.841Z,18.60
2019-02-17T12:22:56.836Z,19.60
2019-02-17T12:23:56.822Z,18.70
2019-02-17T12:24:56.821Z,18.30
2019-02-17T12:25:56.814Z,18.30
2019-02-17T12:26:56.785Z,18.70
2019-02-17T12:27:56.777Z,18.80
2019-02-17T12:28:56.768Z,19.20
2019-02-17T12:29:56.748Z,18.90
2019-02-17T12:30:56.772Z,19.70
2019-02-17T12:31:57.846Z,18.90
2019-02-17T12:32:56.728Z,18.70
2019-02-17T12:33:56.719Z,18.50
2019-02-17T12:34:56.707Z,19.40
2019-02-17T12:35:56.706Z,18.70
2019-02-17T12:36:56.674Z,18.10
2019-02-17T12:37:56.669Z,19.30
2019-02-17T12:38:56.655Z,19.10
2019-02-17T12:39:56.644Z,19.50
2019-02-17T12:40:56.650Z,18.90
2019-02-17T12:41:56.635Z,19.00
2019-02-17T12:42:56.609Z,19.00
2019-02-17T12:43:56.618Z,18.70
2019-02-17T12:44:57.219Z,18.50
2019-02-17T12:45:56.596Z,18.10
2019-02-17T12:46:56.590Z,19.00
2019-02-17T12:47:58.413Z,18.50
2019-02-17T12:48:56.547Z,19.00
2019-02-17T12:49:56.543Z,18.80
2019-02-17T12:50:56.531Z,19.40
2019-02-17T12:51:56.552Z,18.60